createdAt,value
2017-05-16T00:02:01.614Z,5.10
2017-05-16T00:04:31.242Z,4.77
2017-05-16T00:07:00.138Z,8.22
2017-05-16T00:09:29.066Z,4.53
2017-05-16T00:11:57.971Z,5.53
2017-05-16T00:14:26.865Z,4.62
2017-05-16T00:16:55.926Z,7.80
2017-05-16T00:19:24.818Z,5.72
2017-05-16T00:21:53.733Z,6.07
2017-05-16T00:24:22.658Z,5.35
2017-05-16T00:26:51.559Z,4.55
2017-05-16T00:29:20.477Z,5.53
2017-05-16T00:31:49.382Z,4.93
2017-05-16T00:34:18.279Z,6.55
2017-05-16T00:36:47.322Z,5.57
2017-05-16T00:39:16.235Z,5.98
2017-05-16T00:41:45.143Z,4.72
2017-05-16T00:44:14.817Z,7.90
2017-05-16T00:46:43.725Z,5.55
2017-05-16T00:49:12.628Z,6.32
2017-05-16T00:51:41.574Z,9.43
2017-05-16T00:54:10.482Z,5.33
2017-05-16T00:56:39.406Z,6.15
2017-05-16T00:59:08.483Z,7.82
2017-05-16T01:01:37.421Z,7.37
2017-05-16T01:04:06.331Z,7.80
2017-05-16T01:06:35.997Z,8.25
2017-05-16T01:09:04.894Z,6.93
2017-05-16T01:11:33.788Z,7.73
2017-05-16T01:14:02.849Z,7.80
2017-05-16T01:16:31.733Z,9.90
2017-05-16T01:19:00.643Z,9.03
2017-05-16T01:21:29.616Z,7.08
2017-05-16T01:23:59.252Z,8.63
2017-05-16T01:26:28.151Z,9.13
2017-05-16T01:28:57.076Z,5.88
2017-05-16T01:31:25.978Z,8.47
2017-05-16T01:33:54.869Z,6.68
2017-05-16T01:36:23.802Z,7.77
2017-05-16T01:38:53.441Z,8.45
2017-05-16T01:41:22.348Z,6.12
2017-05-16T01:43:51.398Z,6.05
2017-05-16T01:46:21.047Z,8.28
2017-05-16T01:48:49.939Z,6.47
2017-05-16T01:51:18.875Z,5.90
2017-05-16T01:53:47.769Z,6.20
2017-05-16T01:56:16.681Z,7.57
2017-05-16T01:58:46.822Z,6.62
2017-05-16T02:01:16.464Z,6.08
2017-05-16T02:03:45.365Z,7.07
2017-05-16T02:06:14.409Z,6.13
2017-05-16T02:08:43.301Z,9.65
2017-05-16T02:11:12.214Z,9.97
2017-05-16T02:13:41.857Z,6.20
2017-05-16T02:16:10.759Z,6.92
2017-05-16T02:18:39.694Z,5.97
2017-05-16T02:21:08.590Z,6.35
2017-05-16T02:23:37.485Z,6.10
2017-05-16T02:26:06.534Z,6.32
2017-05-16T02:28:35.423Z,9.42
2017-05-16T02:31:04.314Z,9.38
2017-05-16T02:33:33.238Z,6.22
2017-05-16T02:36:02.186Z,7.27
2017-05-16T02:38:31.826Z,8.82
2017-05-16T02:41:00.741Z,5.92
2017-05-16T02:43:29.809Z,7.55
2017-05-16T02:45:58.713Z,6.25
2017-05-16T02:48:27.602Z,7.85
2017-05-16T02:50:56.578Z,6.25
2017-05-16T02:53:25.481Z,10.75
2017-05-16T02:55:55.991Z,8.58
2017-05-16T02:58:26.227Z,5.90
2017-05-16T03:00:55.858Z,9.40
2017-05-16T03:03:24.754Z,6.42
2017-05-16T03:05:53.785Z,6.77
2017-05-16T03:08:22.690Z,6.80
2017-05-16T03:10:51.601Z,6.03
2017-05-16T03:13:20.645Z,6.78
2017-05-16T03:15:49.557Z,7.60
2017-05-16T03:18:18.453Z,6.07
2017-05-16T03:20:47.406Z,10.25
2017-05-16T03:23:16.335Z,5.88
2017-05-16T03:25:45.222Z,8.15
2017-05-16T03:28:14.164Z,6.88
2017-05-16T03:30:43.129Z,7.28
2017-05-16T03:33:12.023Z,8.68
2017-05-16T03:35:41.077Z,7.78
2017-05-16T03:38:10.712Z,6.42
2017-05-16T03:40:39.605Z,7.15
2017-05-16T03:43:08.658Z,7.72
2017-05-16T03:45:37.563Z,7.38
2017-05-16T03:48:06.461Z,7.00
2017-05-16T03:50:35.406Z,9.02
2017-05-16T03:53:04.299Z,9.53
2017-05-16T03:55:33.243Z,5.80
2017-05-16T03:58:02.167Z,7.23
2017-05-16T04:00:31.793Z,8.92
2017-05-16T04:03:00.686Z,9.05
2017-05-16T04:05:29.643Z,8.00
2017-05-16T04:07:58.541Z,7.28
2017-05-16T04:10:28.174Z,6.65
2017-05-16T04:12:57.108Z,7.33
2017-05-16T04:15:26.010Z,7.07
2017-05-16T04:17:54.897Z,7.15
2017-05-16T04:20:23.814Z,7.53
2017-05-16T04:22:52.706Z,7.22
2017-05-16T04:25:21.758Z,14.68
2017-05-16T04:27:50.676Z,6.57
2017-05-16T04:30:19.577Z,6.93
2017-05-16T04:32:48.531Z,7.97
2017-05-16T04:35:17.446Z,7.45
2017-05-16T04:37:46.355Z,8.70
2017-05-16T04:40:15.292Z,7.03
2017-05-16T04:42:44.193Z,9.42
2017-05-16T04:45:13.153Z,7.45
2017-05-16T04:47:42.914Z,7.77
2017-05-16T04:50:12.543Z,8.73
2017-05-16T04:52:41.433Z,10.05
2017-05-16T04:55:10.384Z,9.85
2017-05-16T04:57:39.287Z,8.37
2017-05-16T05:00:08.174Z,7.48
2017-05-16T05:02:44.268Z,8.90
2017-05-16T05:05:13.908Z,7.97
2017-05-16T05:07:42.825Z,9.90
2017-05-16T05:10:11.774Z,9.38
2017-05-16T05:12:41.397Z,9.13
2017-05-16T05:15:10.303Z,7.92
2017-05-16T05:17:39.243Z,8.22
2017-05-16T05:20:08.131Z,8.53
2017-05-16T05:22:37.009Z,9.23
2017-05-16T05:25:13.197Z,8.82
2017-05-16T05:27:49.217Z,9.00
2017-05-16T05:30:18.225Z,8.72
2017-05-16T05:32:47.126Z,10.13
2017-05-16T05:35:16.024Z,10.35
2017-05-16T05:37:44.978Z,14.15
2017-05-16T05:40:13.911Z,12.12
2017-05-16T05:42:43.767Z,11.75
2017-05-16T05:45:11.906Z,10.43
2017-05-16T05:47:40.819Z,11.60
2017-05-16T05:50:09.790Z,10.17
2017-05-16T05:52:38.687Z,13.95
2017-05-16T05:55:08.346Z,17.13
2017-05-16T05:57:39.142Z,13.03
2017-05-16T06:00:08.058Z,14.67
2017-05-16T06:02:36.972Z,11.92
2017-05-16T06:05:13.759Z,9.90
2017-05-16T06:07:42.749Z,10.53
2017-05-16T06:10:11.667Z,16.15
2017-05-16T06:12:40.610Z,12.32
2017-05-16T06:15:09.548Z,13.03
2017-05-16T06:17:38.470Z,16.30
2017-05-16T06:20:07.523Z,14.15
2017-05-16T06:22:36.464Z,15.67
2017-05-16T06:25:05.369Z,11.75
2017-05-16T06:27:34.302Z,9.55
2017-05-16T06:30:03.927Z,8.42
2017-05-16T06:32:33.560Z,9.30
2017-05-16T06:35:04.265Z,10.42
2017-05-16T06:37:33.915Z,9.97
2017-05-16T06:40:02.818Z,9.08
2017-05-16T06:42:31.757Z,11.03
2017-05-16T06:45:01.398Z,10.50
2017-05-16T06:47:30.307Z,13.93
2017-05-16T06:49:59.234Z,9.47
2017-05-16T06:52:28.122Z,14.20
2017-05-16T06:54:57.034Z,15.62
2017-05-16T06:57:27.693Z,15.23
2017-05-16T06:59:57.344Z,10.62
2017-05-16T07:02:26.255Z,11.62
2017-05-16T07:04:55.186Z,13.03
2017-05-16T07:07:24.068Z,9.72
2017-05-16T07:09:52.960Z,13.25
2017-05-16T07:12:22.005Z,11.83
2017-05-16T07:14:50.934Z,8.65
2017-05-16T07:17:19.824Z,11.98
2017-05-16T07:19:48.726Z,12.87
2017-05-16T07:22:17.662Z,11.00
2017-05-16T07:24:46.565Z,11.55
2017-05-16T07:27:16.187Z,10.17
2017-05-16T07:29:45.957Z,10.60
2017-05-16T07:32:14.843Z,8.93
2017-05-16T07:34:43.729Z,8.65
2017-05-16T07:37:12.649Z,9.88
2017-05-16T07:39:41.537Z,10.15
2017-05-16T07:42:10.430Z,9.45
2017-05-16T07:44:39.359Z,9.43
2017-05-16T07:47:08.242Z,13.98
2017-05-16T07:49:37.870Z,9.98
2017-05-16T07:52:07.618Z,14.05
2017-05-16T07:54:36.517Z,14.77
2017-05-16T07:57:05.423Z,6.10
2017-05-16T07:59:34.337Z,6.78
2017-05-16T08:02:03.224Z,5.77
2017-05-16T08:04:32.146Z,10.63
2017-05-16T08:07:01.777Z,8.23
2017-05-16T08:09:38.179Z,6.67
2017-05-16T08:12:07.149Z,8.02
2017-05-16T08:14:36.080Z,9.57
2017-05-16T08:17:04.997Z,5.98
2017-05-16T08:19:33.893Z,5.82
2017-05-16T08:22:02.784Z,6.13
2017-05-16T08:24:31.712Z,7.88
2017-05-16T08:27:00.605Z,8.52
2017-05-16T08:29:29.493Z,6.93
2017-05-16T08:31:58.530Z,7.40
2017-05-16T08:34:27.429Z,11.12
2017-05-16T08:36:56.345Z,5.33
2017-05-16T08:39:25.250Z,4.87
2017-05-16T08:41:55.504Z,6.42
2017-05-16T08:44:24.417Z,4.07
2017-05-16T08:46:53.300Z,5.88
2017-05-16T08:49:22.209Z,5.17
2017-05-16T08:51:51.104Z,3.67
2017-05-16T08:54:20.046Z,3.45
2017-05-16T08:57:00.453Z,3.13
2017-05-16T08:59:29.501Z,3.87
2017-05-16T09:01:58.446Z,3.98
2017-05-16T09:04:27.327Z,2.33
2017-05-16T09:06:56.216Z,2.78
2017-05-16T09:09:25.162Z,3.25
2017-05-16T09:11:54.082Z,5.07
2017-05-16T09:14:22.972Z,2.42
2017-05-16T09:16:52.008Z,2.52
2017-05-16T09:19:20.915Z,3.38
2017-05-16T09:21:50.517Z,2.26
2017-05-16T09:24:21.022Z,3.94
2017-05-16T09:26:49.902Z,3.74
2017-05-16T09:29:18.777Z,4.00
2017-05-16T09:31:47.661Z,3.60
2017-05-16T09:34:16.529Z,1.50
2017-05-16T09:36:46.187Z,3.60
2017-05-16T09:39:15.050Z,3.42
2017-05-16T09:41:52.677Z,4.66
2017-05-16T09:44:23.340Z,2.50
2017-05-16T09:46:53.481Z,3.48
2017-05-16T09:49:23.094Z,3.72
2017-05-16T09:51:52.704Z,7.82
2017-05-16T09:54:22.355Z,2.62
2017-05-16T09:56:51.380Z,2.38
2017-05-16T09:59:20.317Z,4.52
2017-05-16T10:01:49.954Z,2.20
2017-05-16T10:04:18.817Z,3.54
2017-05-16T10:06:48.464Z,3.64
2017-05-16T10:09:17.342Z,3.40
2017-05-16T10:11:46.209Z,4.88
2017-05-16T10:14:16.721Z,2.64
2017-05-16T10:16:45.593Z,3.34
2017-05-16T10:19:14.456Z,2.70
2017-05-16T10:21:43.369Z,3.16
2017-05-16T10:24:12.242Z,2.62
2017-05-16T10:26:41.828Z,2.54
2017-05-16T10:29:11.476Z,2.28
2017-05-16T10:31:40.356Z,2.42
2017-05-16T10:34:09.225Z,2.78
2017-05-16T10:36:39.843Z,5.52
2017-05-16T10:39:08.718Z,3.40
2017-05-16T10:41:37.617Z,2.38
2017-05-16T10:44:06.501Z,3.04
2017-05-16T10:46:35.413Z,2.88
2017-05-16T10:49:04.321Z,6.04
2017-05-16T10:51:33.217Z,5.54
2017-05-16T10:54:02.090Z,2.60
2017-05-16T10:56:33.058Z,3.52
2017-05-16T10:59:01.923Z,3.18
2017-05-16T11:01:30.797Z,3.48
2017-05-16T11:03:59.742Z,3.06
2017-05-16T11:06:28.622Z,5.76
2017-05-16T11:08:57.486Z,4.14
2017-05-16T11:11:26.389Z,6.04
2017-05-16T11:13:55.258Z,2.58
2017-05-16T11:16:24.121Z,5.36
2017-05-16T11:18:53.774Z,3.36
2017-05-16T11:21:22.641Z,2.68
2017-05-16T11:23:52.249Z,4.42
2017-05-16T11:26:23.679Z,4.24
2017-05-16T11:28:52.550Z,4.62
2017-05-16T11:31:21.425Z,2.12
2017-05-16T11:33:51.689Z,2.30
2017-05-16T11:36:20.556Z,6.66
2017-05-16T11:38:49.430Z,3.38
2017-05-16T11:41:18.330Z,2.66
2017-05-16T11:43:47.256Z,3.56
2017-05-16T11:46:16.121Z,4.44
2017-05-16T11:48:45.035Z,3.16
2017-05-16T11:51:13.902Z,2.42
2017-05-16T11:53:42.773Z,3.96
2017-05-16T11:56:26.684Z,3.52
2017-05-16T11:58:55.547Z,3.24
2017-05-16T12:01:24.418Z,3.92
2017-05-16T12:03:53.310Z,4.00
2017-05-16T12:06:22.186Z,2.92
2017-05-16T12:08:51.065Z,3.18
2017-05-16T12:11:19.971Z,2.82
2017-05-16T12:13:50.480Z,3.46
2017-05-16T12:16:19.357Z,3.00
2017-05-16T12:18:48.225Z,3.60
2017-05-16T12:21:17.133Z,3.34
2017-05-16T12:23:46.753Z,3.00
2017-05-16T12:26:15.620Z,3.04
2017-05-16T12:28:51.537Z,2.74
2017-05-16T12:31:21.297Z,3.22
2017-05-16T12:33:50.181Z,4.26
2017-05-16T12:36:19.067Z,2.18
2017-05-16T12:38:47.925Z,2.52
2017-05-16T12:41:16.814Z,4.20
2017-05-16T12:43:45.677Z,4.96
2017-05-16T12:46:14.700Z,2.72
2017-05-16T12:48:43.561Z,3.06
2017-05-16T12:51:12.470Z,2.80
2017-05-16T12:53:41.341Z,8.76
2017-05-16T12:56:10.205Z,2.94
2017-05-16T12:58:53.888Z,6.48
2017-05-16T13:01:22.766Z,5.92
2017-05-16T13:03:51.747Z,2.36
2017-05-16T13:06:20.565Z,4.94
2017-05-16T13:08:49.459Z,3.00
2017-05-16T13:11:18.331Z,2.32
2017-05-16T13:13:47.230Z,3.04
2017-05-16T13:16:16.098Z,2.44
2017-05-16T13:18:45.717Z,2.68
2017-05-16T13:21:17.083Z,3.72
2017-05-16T13:23:45.933Z,3.36
2017-05-16T13:26:14.809Z,2.92
2017-05-16T13:28:43.715Z,4.88
2017-05-16T13:31:12.592Z,4.90
2017-05-16T13:33:41.462Z,2.40
2017-05-16T13:36:10.361Z,2.44
2017-05-16T13:38:40.409Z,3.40
2017-05-16T13:41:09.274Z,5.00
2017-05-16T13:43:45.273Z,1.84
2017-05-16T13:46:14.137Z,2.98
2017-05-16T13:48:43.013Z,2.94
2017-05-16T13:51:11.945Z,3.24
2017-05-16T13:53:48.036Z,3.32
2017-05-16T13:56:17.641Z,2.28
2017-05-16T13:58:46.522Z,4.84
2017-05-16T14:01:30.533Z,3.68
2017-05-16T14:03:59.386Z,2.18
2017-05-16T14:06:28.997Z,3.30
2017-05-16T14:09:00.515Z,3.76
2017-05-16T14:11:29.402Z,5.40
2017-05-16T14:13:58.261Z,2.72
2017-05-16T14:16:27.170Z,3.10
2017-05-16T14:18:56.034Z,3.52
2017-05-16T14:21:25.636Z,2.98
2017-05-16T14:24:02.624Z,6.64
2017-05-16T14:26:31.536Z,3.84
2017-05-16T14:29:00.400Z,4.64
2017-05-16T14:31:30.041Z,3.10
2017-05-16T14:33:58.910Z,3.24
2017-05-16T14:36:28.504Z,5.72
2017-05-16T14:38:58.314Z,3.08
2017-05-16T14:41:27.167Z,2.84
2017-05-16T14:43:56.065Z,3.28
2017-05-16T14:46:24.926Z,4.94
2017-05-16T14:48:53.785Z,3.96
2017-05-16T14:51:22.674Z,2.92
2017-05-16T14:53:51.524Z,3.88
2017-05-16T14:56:20.385Z,3.28
2017-05-16T14:58:57.157Z,1.88
2017-05-16T15:01:26.865Z,4.88
2017-05-16T15:03:55.785Z,3.18
2017-05-16T15:06:24.695Z,2.18
2017-05-16T15:08:53.573Z,3.54
2017-05-16T15:11:23.168Z,5.02
2017-05-16T15:14:00.049Z,4.18
2017-05-16T15:16:29.761Z,3.72
2017-05-16T15:18:58.677Z,3.06
2017-05-16T15:21:27.541Z,3.32
2017-05-16T15:23:56.433Z,2.44
2017-05-16T15:26:25.312Z,3.10
2017-05-16T15:28:54.177Z,1.50
2017-05-16T15:31:23.101Z,3.80
2017-05-16T15:33:51.962Z,3.00
2017-05-16T15:36:20.840Z,2.82
2017-05-16T15:38:57.056Z,3.60
2017-05-16T15:41:25.923Z,2.14
2017-05-16T15:43:58.534Z,2.96
2017-05-16T15:46:27.401Z,1.86
2017-05-16T15:48:56.277Z,2.98
2017-05-16T15:51:25.165Z,2.62
2017-05-16T15:53:54.055Z,2.72
2017-05-16T15:56:23.642Z,3.98
2017-05-16T15:58:53.397Z,5.66
2017-05-16T16:01:22.259Z,3.48
2017-05-16T16:03:51.125Z,3.60
2017-05-16T16:06:20.023Z,3.98
2017-05-16T16:08:48.920Z,3.86
2017-05-16T16:11:17.813Z,8.06
2017-05-16T16:13:46.701Z,2.02
2017-05-16T16:16:15.569Z,3.46
2017-05-16T16:18:44.504Z,3.74
2017-05-16T16:21:14.122Z,5.00
2017-05-16T16:23:43.725Z,3.22
2017-05-16T16:26:12.628Z,6.26
2017-05-16T16:28:42.242Z,3.70
2017-05-16T16:31:11.854Z,6.48
2017-05-16T16:33:41.493Z,3.18
2017-05-16T16:36:10.354Z,2.22
2017-05-16T16:38:39.948Z,6.38
2017-05-16T16:41:16.846Z,6.26
2017-05-16T16:43:46.537Z,3.26
2017-05-16T16:46:15.450Z,7.54
2017-05-16T16:48:44.344Z,31.86
2017-05-16T16:51:13.969Z,3.00
2017-05-16T16:53:43.569Z,3.66
2017-05-16T16:56:34.803Z,5.60
2017-05-16T16:59:11.111Z,6.08
2017-05-16T17:01:40.089Z,16.10
2017-05-16T17:04:08.958Z,2.48
2017-05-16T17:06:37.828Z,4.72
2017-05-16T17:09:07.476Z,8.32
2017-05-16T17:11:36.351Z,4.48
2017-05-16T17:14:05.218Z,3.50
2017-05-16T17:16:42.017Z,4.92
2017-05-16T17:19:11.706Z,4.62
2017-05-16T17:21:40.573Z,3.58
2017-05-16T17:24:09.503Z,7.10
2017-05-16T17:26:39.109Z,4.00
2017-05-16T17:29:08.740Z,5.04
2017-05-16T17:31:45.178Z,4.62
2017-05-16T17:34:21.412Z,4.14
2017-05-16T17:36:51.147Z,2.52
2017-05-16T17:39:20.044Z,3.74
2017-05-16T17:41:48.925Z,6.00
2017-05-16T17:44:17.797Z,2.50
2017-05-16T17:46:53.883Z,3.32
2017-05-16T17:49:22.761Z,2.82
2017-05-16T17:51:51.628Z,2.50
2017-05-16T17:54:21.804Z,3.58
2017-05-16T17:56:58.702Z,2.26
2017-05-16T17:59:28.825Z,2.90
2017-05-16T18:01:57.692Z,7.28
2017-05-16T18:04:26.569Z,3.94
2017-05-16T18:07:03.103Z,2.38
2017-05-16T18:09:32.112Z,3.04
2017-05-16T18:12:01.062Z,3.60
2017-05-16T18:14:29.932Z,4.10
2017-05-16T18:16:58.809Z,4.68
2017-05-16T18:19:27.713Z,5.36
2017-05-16T18:21:56.606Z,3.62
2017-05-16T18:24:25.486Z,3.88
2017-05-16T18:26:54.518Z,3.10
2017-05-16T18:29:23.390Z,4.92
2017-05-16T18:31:52.287Z,4.42
2017-05-16T18:34:21.170Z,4.20
2017-05-16T18:36:50.050Z,2.92
2017-05-16T18:39:18.925Z,2.76
2017-05-16T18:41:55.413Z,2.72
2017-05-16T18:44:24.371Z,5.18
2017-05-16T18:46:53.997Z,4.28
2017-05-16T18:49:22.893Z,5.02
2017-05-16T18:51:51.790Z,3.82
2017-05-16T18:54:20.681Z,4.56
2017-05-16T18:57:00.844Z,2.86
2017-05-16T18:59:29.885Z,4.88
2017-05-16T19:01:58.803Z,4.82
2017-05-16T19:04:27.677Z,7.64
2017-05-16T19:06:56.561Z,3.44
2017-05-16T19:09:25.438Z,2.92
2017-05-16T19:12:06.049Z,3.88
2017-05-16T19:14:35.669Z,3.46
2017-05-16T19:17:05.334Z,4.08
2017-05-16T19:19:34.246Z,5.04
2017-05-16T19:22:03.113Z,5.76
2017-05-16T19:24:32.039Z,2.72
2017-05-16T19:27:00.921Z,6.02
2017-05-16T19:29:29.804Z,3.04
2017-05-16T19:32:06.050Z,5.20
2017-05-16T19:34:42.857Z,3.02
2017-05-16T19:37:11.746Z,5.42
2017-05-16T19:39:40.679Z,3.22
2017-05-16T19:42:09.543Z,5.32
2017-05-16T19:44:38.430Z,2.76
2017-05-16T19:47:14.529Z,2.86
2017-05-16T19:49:50.859Z,4.44
2017-05-16T19:52:19.853Z,3.22
2017-05-16T19:54:48.733Z,5.88
2017-05-16T19:57:17.638Z,3.42
2017-05-16T19:59:46.538Z,3.52
2017-05-16T20:02:15.496Z,5.42
2017-05-16T20:04:44.381Z,3.28
2017-05-16T20:07:13.281Z,4.54
2017-05-16T20:09:42.168Z,3.12
2017-05-16T20:12:11.098Z,3.18
2017-05-16T20:14:39.984Z,6.36
2017-05-16T20:17:08.894Z,6.04
2017-05-16T20:19:37.795Z,5.08
2017-05-16T20:22:06.749Z,4.80
2017-05-16T20:24:35.641Z,4.26
2017-05-16T20:27:04.508Z,6.52
2017-05-16T20:29:33.433Z,3.28
2017-05-16T20:32:02.330Z,3.24
2017-05-16T20:34:31.194Z,3.72
2017-05-16T20:37:00.148Z,4.85
2017-05-16T20:39:29.046Z,5.02
2017-05-16T20:41:57.203Z,7.88
2017-05-16T20:44:33.275Z,4.02
2017-05-16T20:47:02.304Z,6.67
2017-05-16T20:49:31.933Z,10.13
2017-05-16T20:52:00.894Z,4.38
2017-05-16T20:54:29.810Z,6.27
2017-05-16T20:57:00.308Z,8.14
2017-05-16T20:59:32.540Z,4.24
2017-05-16T21:02:02.159Z,8.20
2017-05-16T21:04:31.093Z,6.92
2017-05-16T21:07:00.061Z,9.25
2017-05-16T21:09:28.955Z,7.24
2017-05-16T21:11:57.862Z,10.97
2017-05-16T21:14:26.793Z,11.55
2017-05-16T21:16:55.690Z,6.95
2017-05-16T21:19:25.326Z,5.30
2017-05-16T21:22:01.993Z,4.38
2017-05-16T21:24:30.985Z,4.23
2017-05-16T21:26:59.910Z,5.15
2017-05-16T21:29:28.829Z,6.30
2017-05-16T21:31:57.726Z,5.68
2017-05-16T21:34:26.633Z,12.13
2017-05-16T21:36:55.601Z,7.17
2017-05-16T21:39:24.512Z,6.62
2017-05-16T21:41:53.413Z,5.90
2017-05-16T21:44:22.357Z,4.83
2017-05-16T21:46:51.265Z,5.05
2017-05-16T21:49:20.158Z,5.52
2017-05-16T21:51:50.789Z,7.50
2017-05-16T21:54:19.694Z,9.45
2017-05-16T21:56:49.840Z,9.28
2017-05-16T21:59:18.761Z,4.77
2017-05-16T22:01:47.681Z,6.97
2017-05-16T22:04:16.570Z,7.10
2017-05-16T22:06:45.519Z,7.10
2017-05-16T22:09:14.411Z,7.37
2017-05-16T22:11:43.294Z,5.23
2017-05-16T22:14:19.879Z,8.55
2017-05-16T22:16:56.751Z,6.88
2017-05-16T22:19:25.774Z,6.72
2017-05-16T22:21:54.677Z,5.98
2017-05-16T22:24:23.568Z,7.15
2017-05-16T22:26:52.610Z,7.47
2017-05-16T22:29:21.506Z,6.38
2017-05-16T22:31:50.398Z,6.02
2017-05-16T22:34:19.326Z,6.02
2017-05-16T22:36:48.213Z,8.90
2017-05-16T22:39:17.123Z,5.93
2017-05-16T22:41:53.548Z,5.60
2017-05-16T22:44:26.029Z,5.72
2017-05-16T22:46:56.222Z,6.63
2017-05-16T22:49:25.116Z,5.77
2017-05-16T22:51:54.762Z,6.05
2017-05-16T22:54:23.681Z,9.53
2017-05-16T22:56:57.266Z,6.73
2017-05-16T22:59:26.210Z,6.60
2017-05-16T23:01:55.848Z,8.13
2017-05-16T23:04:24.747Z,7.25
2017-05-16T23:06:57.181Z,5.72
2017-05-16T23:09:26.074Z,7.90
2017-05-16T23:11:54.972Z,5.87
2017-05-16T23:14:25.104Z,6.10
2017-05-16T23:16:54.786Z,9.20
2017-05-16T23:19:23.676Z,9.77
2017-05-16T23:21:52.568Z,7.12
2017-05-16T23:24:22.290Z,7.57
2017-05-16T23:26:51.186Z,8.03
2017-05-16T23:29:20.076Z,7.28
2017-05-16T23:31:49.016Z,7.43
2017-05-16T23:34:18.675Z,7.80
2017-05-16T23:36:47.550Z,8.85
2017-05-16T23:39:16.473Z,7.12
2017-05-16T23:41:45.381Z,8.83
2017-05-16T23:44:14.288Z,8.00
2017-05-16T23:46:43.328Z,9.90
2017-05-16T23:49:12.222Z,9.80
2017-05-16T23:51:41.116Z,7.67
2017-05-16T23:54:10.045Z,7.15
2017-05-16T23:56:38.970Z,7.10
2017-05-16T23:59:07.865Z,7.42
